Time;durP1;ratioP1;P1;durP2;ratioP2;P2;SDS_P1;SDS_P2;PMS_P1;PMS_P2;Temp;Humidity;BMP_temperature;BMP_pressure;BME280_temperature;BME280_humidity;BME280_pressure;Samples;Min_cycle;Max_cycle;Signal;HPM_P1;HPM_P2
2021/10/21 00:00:24;;;;;;;30.60;25.50;;;;;;;12.52;65.54;101235.81;5075753;28;20532;-71
2021/10/21 00:02:49;;;;;;;31.20;27.08;;;;;;;12.87;65.79;101259.66;5074672;28;20044;-72
2021/10/21 00:05:15;;;;;;;33.80;28.05;;;;;;;12.66;65.79;101232.34;5060107;28;20105;-72
2021/10/21 00:07:40;;;;;;;28.75;24.50;;;;;;;12.63;66.39;101221.81;5077055;28;20577;-73
2021/10/21 00:10:06;;;;;;;30.00;24.38;;;;;;;12.64;66.12;101218.31;5074245;28;20028;-72
2021/10/21 00:12:33;;;;;;;41.17;24.77;;;;;;;12.68;66.07;101220.06;5080658;28;20133;-72
2021/10/21 00:15:00;;;;;;;27.40;23.48;;;;;;;12.67;66.16;101239.41;5077536;28;20039;-72
2021/10/21 00:17:26;;;;;;;45.08;26.40;;;;;;;12.67;66.32;101249.06;5073907;28;20044;-73
2021/10/21 00:19:53;;;;;;;33.03;26.85;;;;;;;12.45;66.97;101232.25;5075452;28;20036;-72
2021/10/21 00:22:18;;;;;;;34.55;25.33;;;;;;;12.33;66.62;101211.13;5081056;28;20040;-72
2021/10/21 00:24:44;;;;;;;34.20;26.58;;;;;;;12.41;66.54;101218.22;5082623;28;20494;-70
2021/10/21 00:27:10;;;;;;;32.15;27.63;;;;;;;12.56;66.67;101243.72;5059329;28;20445;-70
2021/10/21 00:29:35;;;;;;;32.00;25.95;;;;;;;12.51;66.76;101221.75;5076516;28;20524;-72
2021/10/21 00:32:01;;;;;;;34.08;25.67;;;;;;;12.38;67.07;101227.81;5063050;28;20396;-70
2021/10/21 00:34:26;;;;;;;31.45;25.70;;;;;;;12.35;67.38;101196.22;5080836;28;20150;-73
2021/10/21 00:36:52;;;;;;;35.88;29.05;;;;;;;12.55;66.87;101217.38;5076717;28;20411;-71
2021/10/21 00:39:17;;;;;;;34.78;28.52;;;;;;;12.65;66.53;101225.34;5082977;28;20040;-73
2021/10/21 00:41:43;;;;;;;35.67;28.05;;;;;;;12.42;66.29;101176.97;5075646;28;20031;-72
2021/10/21 00:44:11;;;;;;;34.05;26.38;;;;;;;12.39;66.20;101182.22;5080362;28;20028;-71
2021/10/21 00:46:37;;;;;;;32.75;24.95;;;;;;;12.49;66.61;101212.97;5081032;28;20097;-71
2021/10/21 00:49:04;;;;;;;34.42;25.73;;;;;;;12.50;66.44;101214.72;5079570;28;20125;-72
2021/10/21 00:51:30;;;;;;;31.60;25.85;;;;;;;12.48;66.48;101199.78;5076322;28;20065;-72
2021/10/21 00:53:57;;;;;;;30.05;25.02;;;;;;;12.36;66.92;101163.75;5085807;28;20548;-71
2021/10/21 00:56:23;;;;;;;30.38;26.35;;;;;;;12.62;67.06;101206.03;5078703;28;20032;-72
2021/10/21 00:58:53;;;;;;;37.40;28.38;;;;;;;12.45;67.01;101198.03;5060590;28;20028;-73
2021/10/21 01:01:22;;;;;;;35.67;29.35;;;;;;;12.39;66.84;101196.25;5061196;28;20067;-72
2021/10/21 01:03:50;;;;;;;32.92;25.77;;;;;;;12.19;66.94;101151.41;5081606;28;20032;-72
2021/10/21 01:06:17;;;;;;;33.45;25.80;;;;;;;12.49;67.21;101196.31;5074393;28;20089;-72
2021/10/21 01:08:43;;;;;;;31.85;27.25;;;;;;;12.37;67.02;101147.13;5085156;28;20028;-73
2021/10/21 01:11:09;;;;;;;39.10;26.92;;;;;;;12.34;67.23;101150.63;5077411;28;20062;-73
2021/10/21 01:13:35;;;;;;;33.25;25.60;;;;;;;12.23;67.06;101131.28;5075880;28;20036;-73
2021/10/21 01:16:06;;;;;;;34.03;25.25;;;;;;;12.31;67.01;101142.69;5080197;28;20033;-72
2021/10/21 01:18:32;;;;;;;30.23;24.48;;;;;;;12.30;66.74;101159.38;5080132;28;20042;-71
2021/10/21 01:20:58;;;;;;;32.42;25.33;;;;;;;12.25;67.25;101154.09;5076880;28;20035;-71
2021/10/21 01:23:24;;;;;;;34.30;25.95;;;;;;;12.16;67.76;101154.03;5078771;28;20492;-72
2021/10/21 01:25:49;;;;;;;32.60;26.08;;;;;;;12.28;67.55;101161.09;5063319;28;20033;-71
2021/10/21 01:28:15;;;;;;;35.70;24.77;;;;;;;12.22;67.50;101158.44;5077596;28;20095;-73
2021/10/21 01:30:41;;;;;;;32.33;25.88;;;;;;;12.16;66.98;101159.28;5082131;28;20043;-71
2021/10/21 01:33:06;;;;;;;30.63;26.33;;;;;;;12.22;66.87;101161.97;5079924;28;20044;-71
2021/10/21 01:35:33;;;;;;;37.17;28.17;;;;;;;12.21;66.58;101159.31;5082530;28;20029;-71
2021/10/21 01:37:59;;;;;;;31.88;26.02;;;;;;;12.28;67.08;101149.72;5079218;28;20035;-72
2021/10/21 01:40:24;;;;;;;33.47;26.67;;;;;;;12.33;67.04;101156.75;5078868;28;20034;-71
2021/10/21 01:42:51;;;;;;;34.50;25.10;;;;;;;12.11;67.16;101113.66;5077670;28;20039;-72
2021/10/21 01:45:25;;;;;;;29.33;25.15;;;;;;;12.10;67.41;101139.97;5080010;28;20083;-70
2021/10/21 01:47:51;;;;;;;36.30;27.45;;;;;;;12.21;67.22;101151.44;5080301;28;20032;-71
2021/10/21 01:50:18;;;;;;;34.88;25.80;;;;;;;12.27;66.68;101140.94;5066064;28;20036;-71
2021/10/21 01:52:44;;;;;;;43.13;29.88;;;;;;;12.30;66.93;101138.31;5082894;28;20032;-71
2021/10/21 01:55:10;;;;;;;33.25;25.17;;;;;;;12.14;67.14;101108.41;5057119;28;20036;-71
2021/10/21 01:57:37;;;;;;;35.25;25.58;;;;;;;12.41;67.04;101152.41;5079473;28;20063;-71
2021/10/21 02:00:13;;;;;;;32.72;26.52;;;;;;;12.32;67.49;101136.56;5079233;28;20060;-72
2021/10/21 02:02:42;;;;;;;33.97;28.15;;;;;;;12.34;67.26;101145.34;5082389;28;22447;-71
2021/10/21 02:05:08;;;;;;;32.15;25.52;;;;;;;12.37;66.96;101149.75;5077932;28;20032;-72
2021/10/21 02:07:34;;;;;;;34.28;25.52;;;;;;;12.11;67.08;101108.41;5078182;28;20053;-72
2021/10/21 02:09:59;;;;;;;34.95;27.92;;;;;;;12.09;67.06;101098.75;5075456;28;20041;-73
2021/10/21 02:12:25;;;;;;;37.88;26.75;;;;;;;12.13;66.94;101111.06;5061281;28;20033;-72
2021/10/21 02:14:50;;;;;;;34.00;28.63;;;;;;;12.14;66.89;101131.22;5077262;28;20055;-72
2021/10/21 02:17:16;;;;;;;43.90;29.00;;;;;;;11.65;67.31;101086.19;5076191;28;20036;-72
2021/10/21 02:19:41;;;;;;;30.13;23.95;;;;;;;11.83;67.20;101115.22;5079471;28;20086;-72
2021/10/21 02:22:07;;;;;;;44.00;25.77;;;;;;;11.85;67.19;101142.41;5081115;28;20036;-72
2021/10/21 02:24:33;;;;;;;33.00;25.27;;;;;;;12.02;66.73;101138.16;5075619;28;20507;-72
2021/10/21 02:26:59;;;;;;;32.05;25.83;;;;;;;12.09;66.67;101125.94;5079015;28;20035;-72
2021/10/21 02:29:25;;;;;;;31.00;25.98;;;;;;;11.91;66.34;101094.25;5075894;28;20039;-74
2021/10/21 02:31:50;;;;;;;32.25;27.23;;;;;;;11.91;66.07;101089.00;5081281;28;20479;-74
2021/10/21 02:34:16;;;;;;;28.23;25.17;;;;;;;12.24;66.70;101125.13;5080010;28;20078;-74
2021/10/21 02:36:41;;;;;;;32.72;26.15;;;;;;;12.25;66.62;101124.25;5076891;28;20448;-73
2021/10/21 02:39:07;;;;;;;34.70;26.23;;;;;;;12.14;66.96;101125.97;5078049;28;20464;-72
2021/10/21 02:41:33;;;;;;;36.20;26.25;;;;;;;12.11;67.22;101120.69;5078028;28;20199;-73
2021/10/21 02:43:58;;;;;;;33.42;26.30;;;;;;;12.30;67.00;101129.53;5079780;28;20511;-72
2021/10/21 02:46:24;;;;;;;43.95;28.42;;;;;;;12.31;67.29;101126.03;5060688;28;20456;-72
2021/10/21 02:48:50;;;;;;;32.58;25.85;;;;;;;12.12;66.62;101093.50;5077383;28;20889;-72
2021/10/21 02:51:15;;;;;;;35.13;27.15;;;;;;;12.26;66.22;101131.28;5081466;28;21050;-72
2021/10/21 02:53:41;;;;;;;39.97;25.13;;;;;;;12.21;66.33;101127.75;5076437;28;20070;-73
2021/10/21 02:56:06;;;;;;;31.98;26.77;;;;;;;12.12;66.34;101097.00;5079243;28;20025;-71
2021/10/21 02:58:32;;;;;;;32.92;27.55;;;;;;;11.98;66.61;101093.44;5080173;28;20032;-73
2021/10/21 03:00:58;;;;;;;36.17;27.48;;;;;;;11.93;67.31;101092.53;5078844;28;20032;-72
2021/10/21 03:03:23;;;;;;;31.85;27.98;;;;;;;12.08;67.50;101115.38;5059351;28;20372;-72
2021/10/21 03:05:49;;;;;;;39.47;30.10;;;;;;;11.86;66.97;101070.53;5077143;28;20032;-71
2021/10/21 03:08:14;;;;;;;34.92;25.52;;;;;;;11.99;66.61;101110.97;5079543;28;20144;-72
2021/10/21 03:10:40;;;;;;;37.78;25.60;;;;;;;11.75;67.27;101082.75;5078682;28;20115;-70
2021/10/21 03:13:05;;;;;;;37.45;27.52;;;;;;;11.96;67.35;101082.91;5075821;28;20078;-72
2021/10/21 03:15:31;;;;;;;41.65;29.75;;;;;;;12.03;66.88;101068.03;5079370;28;20036;-73
2021/10/21 03:17:56;;;;;;;34.80;27.40;;;;;;;12.03;66.57;101062.75;5075569;28;21189;-73
2021/10/21 03:20:22;;;;;;;34.47;26.75;;;;;;;11.92;66.86;101061.84;5076321;28;20036;-73
2021/10/21 03:22:47;;;;;;;36.75;28.40;;;;;;;11.83;67.29;101068.78;5071881;28;20040;-72
2021/10/21 03:25:13;;;;;;;44.00;28.63;;;;;;;12.15;67.47;101106.66;5077249;28;20020;-73
2021/10/21 03:27:40;;;;;;;31.17;25.23;;;;;;;12.12;67.63;101104.03;5073410;28;20094;-72
2021/10/21 03:30:07;;;;;;;38.80;27.17;;;;;;;12.11;67.27;101087.38;5080871;28;20591;-73
2021/10/21 03:32:33;;;;;;;36.83;25.67;;;;;;;12.17;67.77;101092.63;5078966;28;20097;-73
2021/10/21 03:34:59;;;;;;;36.38;28.42;;;;;;;11.98;67.05;101044.31;5080639;28;20483;-73
2021/10/21 03:37:25;;;;;;;35.33;24.55;;;;;;;11.99;66.69;101053.13;5071857;28;20051;-72
2021/10/21 03:39:50;;;;;;;37.40;27.88;;;;;;;11.82;66.94;101059.16;5081010;28;20074;-73
2021/10/21 03:42:21;;;;;;;30.52;25.25;;;;;;;11.98;66.68;101080.28;5079660;28;20056;-73
2021/10/21 03:44:49;;;;;;;32.45;26.05;;;;;;;11.99;67.53;101085.56;5062536;28;20036;-73
2021/10/21 03:47:15;;;;;;;33.03;26.38;;;;;;;12.10;66.86;101074.19;5076905;28;20024;-73
2021/10/21 03:49:40;;;;;;;47.83;27.15;;;;;;;12.12;66.15;101072.44;5078755;28;20055;-73
2021/10/21 03:52:06;;;;;;;38.63;28.60;;;;;;;12.17;66.57;101068.94;5076263;28;20024;-73
2021/10/21 03:54:32;;;;;;;34.75;27.40;;;;;;;12.01;66.72;101060.16;5079199;28;20028;-72
2021/10/21 03:56:59;;;;;;;33.63;28.00;;;;;;;12.16;67.07;101061.94;5072298;28;20463;-73
2021/10/21 03:59:25;;;;;;;39.72;29.65;;;;;;;11.95;67.41;101039.06;5073303;28;20040;-73
2021/10/21 04:01:53;;;;;;;38.95;26.45;;;;;;;11.82;66.77;101027.59;5076958;28;20101;-73
2021/10/21 04:04:19;;;;;;;35.03;27.92;;;;;;;12.15;66.80;101060.19;5075438;28;20039;-73
2021/10/21 04:06:44;;;;;;;55.70;27.48;;;;;;;12.21;66.82;101057.56;5074309;28;20050;-73
2021/10/21 04:09:10;;;;;;;42.47;30.95;;;;;;;12.11;66.54;101049.66;5076491;28;20847;-72
2021/10/21 04:11:35;;;;;;;36.58;27.52;;;;;;;11.98;67.21;101049.59;5078446;28;20028;-71
2021/10/21 04:16:20;;;;;;;34.78;28.38;;;;;;;11.92;67.22;101022.41;5054272;27;20621;-75
2021/10/21 04:18:45;;;;;;;35.03;28.10;;;;;;;11.93;67.25;101019.75;5036534;28;20488;-75
2021/10/21 04:21:12;;;;;;;34.38;28.42;;;;;;;12.19;66.72;101042.66;5037280;28;20296;-75
2021/10/21 04:23:37;;;;;;;51.47;29.60;;;;;;;11.94;66.45;101004.84;5038362;28;20465;-75
2021/10/21 04:26:02;;;;;;;43.85;32.88;;;;;;;12.04;66.93;101032.97;5035147;28;20033;-76
2021/10/21 04:28:28;;;;;;;40.00;30.55;;;;;;;11.94;67.19;101026.81;5035435;28;20068;-78
2021/10/21 04:30:53;;;;;;;43.30;30.73;;;;;;;11.99;67.44;101029.44;5033144;28;20083;-79
2021/10/21 04:33:19;;;;;;;50.03;34.47;;;;;;;11.86;67.51;101015.31;5032329;28;20045;-78
2021/10/21 04:35:44;;;;;;;39.00;30.70;;;;;;;12.09;67.05;101031.22;5039388;28;20131;-77
2021/10/21 04:38:11;;;;;;;49.85;31.42;;;;;;;12.02;66.78;101011.91;5036093;28;20168;-77
2021/10/21 04:40:36;;;;;;;37.33;31.67;;;;;;;12.21;66.64;101033.03;5039122;28;20125;-76
2021/10/21 04:43:02;;;;;;;40.00;32.72;;;;;;;12.31;66.53;101024.28;5036092;28;20034;-77
2021/10/21 04:45:27;;;;;;;39.67;34.67;;;;;;;12.19;66.55;100992.66;5035471;28;20036;-78
2021/10/21 04:47:56;;;;;;;39.03;33.40;;;;;;;12.14;66.87;100994.41;5038053;28;20500;-76
2021/10/21 04:50:24;;;;;;;37.35;31.40;;;;;;;12.30;67.01;101016.41;5035749;28;20048;-78
2021/10/21 04:52:52;;;;;;;38.95;31.17;;;;;;;12.19;67.23;101025.13;5034012;28;20041;-79
2021/10/21 04:55:20;;;;;;;37.25;32.20;;;;;;;12.30;66.97;101026.91;5040058;28;20559;-79
2021/10/21 04:57:45;;;;;;;37.75;31.92;;;;;;;12.30;66.50;101029.56;5037051;28;20037;-80
2021/10/21 05:00:12;;;;;;;38.90;32.45;;;;;;;12.14;67.07;101013.72;5036401;28;20206;-76
2021/10/21 05:02:37;;;;;;;43.50;28.35;;;;;;;12.09;66.92;101031.22;5038847;28;20049;-78
2021/10/21 05:05:04;;;;;;;44.72;31.98;;;;;;;11.96;66.86;100990.88;5035934;28;20063;-78
2021/10/21 05:07:30;;;;;;;41.42;33.92;;;;;;;12.06;66.69;100991.78;5039312;28;20060;-78
2021/10/21 05:09:57;;;;;;;36.42;31.77;;;;;;;12.36;66.69;101021.66;5039447;28;20477;-80
2021/10/21 05:12:23;;;;;;;42.20;34.53;;;;;;;12.17;66.79;100991.78;5033254;28;20207;-79
2021/10/21 05:14:49;;;;;;;48.20;33.38;;;;;;;12.28;66.84;101011.13;5035397;28;20056;-78
2021/10/21 05:17:14;;;;;;;52.83;34.72;;;;;;;12.09;66.39;100972.50;5037381;28;20046;-80
2021/10/21 05:19:40;;;;;;;40.47;31.10;;;;;;;12.32;66.81;101019.91;5032435;28;20392;-80
2021/10/21 05:22:05;;;;;;;48.35;32.08;;;;;;;12.35;66.61;101017.28;5036708;28;20037;-79
2021/10/21 05:24:31;;;;;;;44.60;32.53;;;;;;;12.43;67.01;101012.91;5037001;28;20037;-80
2021/10/21 05:26:56;;;;;;;49.22;34.25;;;;;;;12.41;67.00;101026.06;5022967;28;20080;-79
2021/10/21 05:29:22;;;;;;;42.08;33.70;;;;;;;12.27;66.15;100996.22;5027634;28;20049;-79
2021/10/21 05:31:48;;;;;;;40.80;33.10;;;;;;;12.33;66.80;101024.28;5018808;28;20045;-79
2021/10/21 05:34:14;;;;;;;48.00;34.15;;;;;;;12.32;66.06;100997.09;5021163;28;20111;-79
2021/10/21 05:36:39;;;;;;;51.20;36.03;;;;;;;12.55;65.80;101015.56;5036822;28;20048;-80
2021/10/21 05:39:05;;;;;;;53.45;36.58;;;;;;;12.47;66.10;100983.06;5019177;28;20029;-79
2021/10/21 05:41:30;;;;;;;41.03;34.03;;;;;;;12.45;66.12;100987.47;5020079;28;20041;-78
2021/10/21 05:43:56;;;;;;;49.45;33.72;;;;;;;12.52;65.63;100993.63;5022078;28;20033;-79
2021/10/21 05:46:22;;;;;;;44.92;33.33;;;;;;;12.58;64.99;100975.22;5020212;28;20038;-78
2021/10/21 05:48:47;;;;;;;52.63;33.83;;;;;;;12.86;65.97;101015.59;5018820;28;20928;-77
2021/10/21 05:51:13;;;;;;;39.75;35.13;;;;;;;12.94;66.05;101008.56;5022402;28;20037;-80
2021/10/21 05:53:39;;;;;;;47.72;33.17;;;;;;;12.98;66.23;101006.81;5024659;28;20060;-80
2021/10/21 05:56:04;;;;;;;48.95;36.63;;;;;;;13.00;66.01;101013.84;5022771;28;20540;-80
2021/10/21 05:58:30;;;;;;;45.97;34.25;;;;;;;13.02;65.43;101009.44;5022905;28;20041;-78
2021/10/21 06:00:55;;;;;;;43.60;34.28;;;;;;;13.00;65.88;100981.34;5022311;28;20033;-77
2021/10/21 06:03:21;;;;;;;41.17;32.53;;;;;;;12.84;64.57;100975.22;5024940;28;20030;-78
2021/10/21 06:05:46;;;;;;;37.15;31.10;;;;;;;12.82;64.50;100977.84;5020244;28;20571;-79
2021/10/21 06:08:12;;;;;;;49.83;32.90;;;;;;;12.39;65.53;101005.88;5054620;28;20518;-78
2021/10/21 06:10:37;;;;;;;39.47;29.50;;;;;;;12.52;64.83;100978.69;5020151;28;20457;-81
2021/10/21 06:13:05;;;;;;;41.70;30.80;;;;;;;12.64;64.40;100970.81;5022145;28;20540;-80
2021/10/21 06:15:31;;;;;;;46.38;33.72;;;;;;;12.89;65.26;100997.16;5021884;28;20132;-78
2021/10/21 06:18:01;;;;;;;33.95;30.15;;;;;;;12.98;64.34;100981.34;5024566;28;20029;-80
2021/10/21 06:20:26;;;;;;;45.75;33.10;;;;;;;13.15;64.51;100993.63;5022561;28;20083;-81
2021/10/21 06:22:52;;;;;;;35.45;29.70;;;;;;;13.15;63.45;100989.22;5021475;28;20585;-78
2021/10/21 06:25:17;;;;;;;37.40;32.42;;;;;;;12.58;64.18;100964.69;5023860;28;20041;-79
2021/10/21 06:27:43;;;;;;;32.03;27.70;;;;;;;12.78;64.72;100993.63;5016351;28;20492;-78
2021/10/21 06:30:09;;;;;;;43.92;29.00;;;;;;;12.42;65.56;100990.09;5024770;28;20902;-80
2021/10/21 06:32:35;;;;;;;43.53;30.80;;;;;;;12.49;65.48;100964.66;5022559;28;20116;-80
2021/10/21 06:35:02;;;;;;;43.42;35.13;;;;;;;12.94;64.66;100994.53;5017749;28;20053;-73
2021/10/21 06:37:28;;;;;;;37.15;27.95;;;;;;;13.34;63.90;100990.09;5015201;28;20037;-74
2021/10/21 06:39:54;;;;;;;44.03;30.25;;;;;;;13.57;62.43;100990.03;5020085;28;20068;-76
2021/10/21 06:42:21;;;;;;;40.72;31.65;;;;;;;12.73;64.20;100982.22;5019166;28;20903;-74
2021/10/21 06:44:47;;;;;;;43.97;32.15;;;;;;;13.26;63.93;100976.91;5021588;28;20422;-74
2021/10/21 06:47:12;;;;;;;37.58;31.83;;;;;;;13.26;63.24;100945.28;5021687;28;20503;-76
2021/10/21 06:49:38;;;;;;;42.10;31.83;;;;;;;13.60;62.62;100950.50;5021302;28;20038;-75
2021/10/21 06:52:04;;;;;;;32.22;28.08;;;;;;;13.38;62.96;100980.44;5021293;28;20048;-74
2021/10/21 06:54:29;;;;;;;36.22;29.17;;;;;;;13.32;63.54;100946.19;5018489;28;20489;-75
2021/10/21 06:56:55;;;;;;;42.45;31.00;;;;;;;13.48;62.85;100943.50;5023323;28;20499;-74
2021/10/21 06:59:21;;;;;;;36.28;32.17;;;;;;;12.98;63.56;100972.56;5020091;28;20033;-73
2021/10/21 07:01:46;;;;;;;35.97;31.40;;;;;;;13.03;64.46;100969.03;5019590;28;20530;-74
2021/10/21 07:04:12;;;;;;;45.63;32.35;;;;;;;13.09;64.78;100979.59;5022380;28;20501;-73
2021/10/21 07:06:37;;;;;;;44.42;31.95;;;;;;;13.63;63.06;100971.59;5022301;28;20415;-74
2021/10/21 07:09:04;;;;;;;41.40;33.35;;;;;;;14.00;62.24;100979.34;5018542;28;20049;-74
2021/10/21 07:11:30;;;;;;;56.28;34.95;;;;;;;13.88;61.72;100946.00;5006604;28;20474;-75
2021/10/21 07:13:56;;;;;;;39.95;31.60;;;;;;;14.05;60.98;100972.28;5021178;28;20424;-74
2021/10/21 07:16:22;;;;;;;43.10;32.97;;;;;;;13.95;62.12;100967.91;5018590;28;20060;-74
2021/10/21 07:18:47;;;;;;;39.03;30.85;;;;;;;13.25;61.09;100845.13;5020947;28;20122;-75
2021/10/21 07:21:17;;;;;;;37.10;32.85;;;;;;;14.55;59.89;100955.25;5018468;28;20548;-76
2021/10/21 07:23:43;;;;;;;39.17;30.77;;;;;;;14.69;59.80;100936.66;5020374;28;20034;-75
2021/10/21 07:26:09;;;;;;;41.42;34.03;;;;;;;14.68;59.64;100965.72;5023697;28;20033;-75
2021/10/21 07:28:34;;;;;;;46.35;36.08;;;;;;;14.87;59.23;100972.63;5014342;28;20033;-76
2021/10/21 07:31:00;;;;;;;41.25;33.03;;;;;;;14.28;59.54;100972.16;5021812;28;20037;-75
2021/10/21 07:33:26;;;;;;;44.10;35.15;;;;;;;14.36;60.81;100970.31;5021272;28;20038;-75
2021/10/21 07:35:52;;;;;;;56.58;35.80;;;;;;;14.76;59.48;100962.13;5017963;28;20073;-75
2021/10/21 07:38:18;;;;;;;58.45;33.58;;;;;;;14.75;59.09;100918.13;5021186;28;20075;-75
2021/10/21 07:40:44;;;;;;;48.42;35.08;;;;;;;15.08;59.31;100953.03;5018847;28;20025;-74
2021/10/21 07:43:14;;;;;;;50.92;35.28;;;;;;;14.66;59.90;100952.53;5018772;28;20049;-75
2021/10/21 07:45:41;;;;;;;46.28;35.20;;;;;;;15.07;59.58;100942.47;5023219;28;20083;-76
2021/10/21 07:48:10;;;;;;;56.47;34.65;;;;;;;14.76;59.22;100953.34;5023093;28;20064;-76
2021/10/21 07:50:36;;;;;;;44.70;34.88;;;;;;;14.72;59.11;100904.91;5022275;28;20040;-75
2021/10/21 07:53:02;;;;;;;43.13;35.40;;;;;;;15.16;59.09;100927.41;5021218;28;20049;-77
2021/10/21 07:55:30;;;;;;;45.08;34.17;;;;;;;15.41;57.96;100924.50;5019227;28;20473;-75
2021/10/21 07:57:59;;;;;;;45.80;33.17;;;;;;;15.16;57.67;100897.44;5020049;28;20095;-74
2021/10/21 08:00:26;;;;;;;42.70;35.50;;;;;;;15.14;58.21;100917.72;5023051;28;20108;-75
2021/10/21 08:02:51;;;;;;;45.45;36.90;;;;;;;14.92;58.66;100922.38;5036630;28;20138;-76
2021/10/21 08:05:17;;;;;;;54.38;35.20;;;;;;;15.27;58.18;100923.78;5017283;28;20037;-74
2021/10/21 08:07:44;;;;;;;47.83;29.92;;;;;;;15.56;57.73;100926.94;5022458;28;20041;-75
2021/10/21 08:10:12;;;;;;;46.58;32.13;;;;;;;15.76;57.26;100928.50;5019401;28;20029;-76
2021/10/21 08:12:38;;;;;;;49.42;34.30;;;;;;;15.91;56.90;100915.06;5021718;28;20048;-74
2021/10/21 08:15:05;;;;;;;41.83;32.63;;;;;;;15.92;56.37;100929.16;5019782;28;20045;-75
2021/10/21 08:17:31;;;;;;;38.97;31.88;;;;;;;15.67;56.65;100899.50;5019556;28;20099;-76
2021/10/21 08:19:57;;;;;;;51.00;33.47;;;;;;;15.43;57.58;100904.19;5015353;28;20030;-75
2021/10/21 08:22:23;;;;;;;39.63;31.00;;;;;;;15.11;58.03;100891.34;5039795;28;20601;-74
2021/10/21 08:24:49;;;;;;;46.13;29.88;;;;;;;15.05;56.97;100860.53;5021736;28;20132;-76
2021/10/21 08:27:14;;;;;;;41.17;27.10;;;;;;;15.44;57.01;100889.19;5018444;28;20055;-74
2021/10/21 08:29:40;;;;;;;33.72;28.85;;;;;;;15.07;56.39;100879.03;5022641;28;20830;-76
2021/10/21 08:32:07;;;;;;;39.90;25.73;;;;;;;15.77;56.84;100893.19;5021435;28;20120;-75
2021/10/21 08:34:36;;;;;;;31.23;26.33;;;;;;;16.03;55.26;100887.53;5023648;28;20099;-76
2021/10/21 08:37:02;;;;;;;32.00;26.80;;;;;;;16.29;55.86;100912.75;5021578;28;20068;-76
2021/10/21 08:39:28;;;;;;;39.15;29.52;;;;;;;16.54;55.30;100907.94;5021235;28;20025;-75
2021/10/21 08:41:54;;;;;;;35.53;29.90;;;;;;;16.58;54.38;100867.25;4999605;28;20037;-75
2021/10/21 08:44:19;;;;;;;36.60;29.33;;;;;;;16.75;54.74;100861.63;5020585;28;20071;-73
2021/10/21 08:46:52;;;;;;;43.15;31.42;;;;;;;16.98;53.90;100901.00;5018186;28;20756;-74
2021/10/21 08:49:18;;;;;;;56.70;30.58;;;;;;;17.17;53.69;100898.88;5020769;28;20080;-75
2021/10/21 08:51:44;;;;;;;40.92;33.22;;;;;;;17.19;54.14;100891.78;5022401;28;20116;-75
2021/10/21 08:54:10;;;;;;;39.42;31.38;;;;;;;17.42;53.60;100899.25;5020948;28;20045;-74
2021/10/21 08:56:37;;;;;;;41.33;30.15;;;;;;;17.50;52.57;100897.31;5021222;28;20047;-74
2021/10/21 08:59:03;;;;;;;37.58;28.58;;;;;;;17.30;52.75;100855.28;5023243;28;20095;-75
2021/10/21 09:04:30;;;;;;;51.53;29.73;;;;;;;17.43;52.85;100874.47;5021506;28;20405;-76
2021/10/21 09:09:24;;;;;;;31.05;26.92;;;;;;;17.25;53.11;100876.59;5024664;28;20061;-77
2021/10/21 09:12:05;;;;;;;34.35;28.48;;;;;;;16.72;53.43;100806.06;5024559;28;20034;-74
2021/10/21 09:14:34;;;;;;;39.78;28.13;;;;;;;17.32;53.73;100868.53;5041696;28;20049;-76
2021/10/21 09:17:01;;;;;;;29.00;23.67;;;;;;;17.24;51.73;100840.38;5022212;28;20116;-71
2021/10/21 09:19:28;;;;;;;29.40;23.23;;;;;;;17.61;51.57;100850.22;5022567;28;20044;-72
2021/10/21 09:21:53;;;;;;;29.45;22.40;;;;;;;17.93;51.54;100843.31;5021814;28;20038;-71
2021/10/21 09:24:41;;;;;;;31.13;20.58;;;;;;;17.43;50.60;100811.66;5020663;28;20422;-72
2021/10/21 09:27:15;;;;;;;24.05;18.65;;;;;;;17.84;51.08;100839.13;5019160;28;20071;-71
2021/10/21 09:29:42;;;;;;;19.90;17.50;;;;;;;17.71;49.82;100848.22;5022606;28;20048;-71
2021/10/21 09:32:23;;;;;;;19.88;17.75;;;;;;;17.82;50.40;100798.44;5019352;28;20117;-72
2021/10/21 09:35:02;;;;;;;21.83;17.88;;;;;;;18.06;48.91;100831.50;5022166;28;20508;-73
2021/10/21 09:37:42;;;;;;;22.83;18.15;;;;;;;17.88;49.27;100806.25;5022128;28;20044;-74
2021/10/21 09:40:11;;;;;;;21.17;18.52;;;;;;;18.01;48.96;100808.63;5022126;28;20518;-73
2021/10/21 09:42:42;;;;;;;30.23;18.58;;;;;;;17.90;50.10;100800.91;5023256;28;20018;-73
2021/10/21 09:45:17;;;;;;;26.98;19.23;;;;;;;17.91;50.67;100815.91;5024676;28;20045;-74
2021/10/21 09:47:51;;;;;;;22.52;17.70;;;;;;;18.09;49.54;100799.53;5019821;28;20120;-73
2021/10/21 09:50:28;;;;;;;22.55;16.27;;;;;;;18.44;49.21;100824.34;5019498;28;20050;-73
2021/10/21 09:53:18;;;;;;;21.80;17.85;;;;;;;18.64;48.94;100821.19;5026137;28;20072;-73
2021/10/21 09:55:50;;;;;;;19.90;17.00;;;;;;;18.68;49.19;100822.84;5026428;28;20064;-74
2021/10/21 09:58:16;;;;;;;20.27;17.02;;;;;;;18.79;48.22;100795.13;5020496;28;20033;-74
2021/10/21 10:00:42;;;;;;;23.17;17.88;;;;;;;19.05;47.76;100819.19;5015914;28;20034;-74
2021/10/21 10:03:19;;;;;;;22.08;18.55;;;;;;;19.23;47.82;100815.13;5023283;28;20021;-72
2021/10/21 10:05:49;;;;;;;20.23;16.95;;;;;;;19.17;48.60;100783.38;5022624;28;20029;-74
2021/10/21 10:08:25;;;;;;;20.58;17.13;;;;;;;19.23;48.62;100767.22;5023594;28;20029;-73
2021/10/21 10:10:55;;;;;;;24.95;18.42;;;;;;;19.39;47.88;100767.63;5023472;28;20048;-74
2021/10/21 10:13:22;;;;;;;20.73;17.55;;;;;;;19.28;49.28;100772.41;5020992;28;20033;-75
2021/10/21 10:15:50;;;;;;;25.38;19.48;;;;;;;19.42;47.71;100787.97;5021161;28;20050;-74
2021/10/21 10:18:23;;;;;;;24.20;16.77;;;;;;;19.45;47.40;100763.91;5022797;28;20112;-76
2021/10/21 10:20:56;;;;;;;20.95;18.17;;;;;;;19.69;47.61;100757.84;5022557;28;20063;-74
2021/10/21 10:23:22;;;;;;;30.15;17.77;;;;;;;19.26;47.70;100776.91;5018446;28;20040;-74
2021/10/21 10:25:51;;;;;;;19.10;16.75;;;;;;;19.35;48.37;100737.56;5026573;28;20044;-74
2021/10/21 10:28:17;;;;;;;28.70;18.80;;;;;;;19.86;47.50;100761.75;5020866;28;20026;-75
2021/10/21 10:30:51;;;;;;;28.13;23.40;;;;;;;19.77;46.98;100729.16;5025874;28;20092;-75
2021/10/21 10:33:32;;;;;;;18.00;16.10;;;;;;;20.25;46.15;100751.53;5023864;28;20037;-75
2021/10/21 10:36:22;;;;;;;23.65;18.33;;;;;;;20.47;46.23;100750.78;5019164;28;20033;-75
2021/10/21 10:38:48;;;;;;;23.33;14.48;;;;;;;20.38;44.96;100742.19;5024378;28;20038;-72
2021/10/21 10:41:43;;;;;;;19.63;14.23;;;;;;;20.32;43.92;100746.84;5026930;28;20037;-74
2021/10/21 10:44:32;;;;;;;22.15;13.40;;;;;;;20.34;43.16;100747.69;5020148;28;20480;-73
2021/10/21 10:46:57;;;;;;;16.63;11.98;;;;;;;20.29;43.16;100712.31;5020424;28;20048;-75
2021/10/21 10:49:38;;;;;;;15.98;13.18;;;;;;;20.48;42.94;100740.06;5023709;28;20038;-75
2021/10/21 10:52:10;;;;;;;25.35;12.35;;;;;;;20.43;43.10;100710.03;5022577;28;20080;-75
2021/10/21 10:54:51;;;;;;;22.50;12.35;;;;;;;20.59;43.00;100742.38;5023199;28;20534;-74
2021/10/21 10:57:25;;;;;;;15.02;12.07;;;;;;;20.47;43.38;100724.13;5023812;28;20034;-75
2021/10/21 10:59:58;;;;;;;14.25;11.68;;;;;;;20.66;43.95;100706.56;5025382;28;20053;-76
2021/10/21 11:02:30;;;;;;;22.92;13.77;;;;;;;20.44;43.63;100712.66;5016309;28;20128;-71
2021/10/21 11:04:58;;;;;;;14.63;12.97;;;;;;;20.20;44.16;100716.19;5020033;28;20029;-74
2021/10/21 11:07:47;;;;;;;15.88;13.25;;;;;;;20.71;44.58;100707.25;5023961;28;20029;-73
2021/10/21 11:10:17;;;;;;;18.83;13.13;;;;;;;20.35;43.75;100673.00;5019212;28;20146;-75
2021/10/21 11:12:48;;;;;;;12.88;11.57;;;;;;;20.73;43.68;100689.41;5020703;28;20029;-72
2021/10/21 11:15:29;;;;;;;13.40;11.35;;;;;;;20.65;43.83;100688.84;5021498;28;20055;-73
2021/10/21 11:17:57;;;;;;;16.92;12.10;;;;;;;20.01;44.47;100679.50;5021045;28;20087;-72